Time;durP1;ratioP1;P1;durP2;ratioP2;P2;SDS_P1;SDS_P2;PMS_P1;PMS_P2;Temp;Humidity;BMP_temperature;BMP_pressure;BME280_temperature;BME280_humidity;BME280_pressure;Samples;Min_cycle;Max_cycle;Signal;HPM_P1;HPM_P2
2023/07/01 00:02:44;;;;;;;;;;;;;;;17.5;69.9209;100706.2;;;;-70
2023/07/01 00:04:29;;;;;;;0.2;0.1;;;;;;;;;;;;;-70
2023/07/01 00:07:44;;;;;;;;;;;;;;;17.49;70.2334;100689.6;;;;-70
2023/07/01 00:12:44;;;;;;;;;;;;;;;17.48;70.61523;100676.8;;;;-70
2023/07/01 00:17:44;;;;;;;;;;;;;;;17.44;71.89355;100675.8;;;;-69
2023/07/01 00:22:44;;;;;;;;;;;;;;;17.42;70.51563;100666.6;;;;-68
2023/07/01 00:27:44;;;;;;;;;;;;;;;17.35;71.89063;100662.4;;;;-70
2023/07/01 00:32:44;;;;;;;;;;;;;;;17.31;73.37012;100649.8;;;;-69
2023/07/01 00:34:32;;;;;;;0.2;0.1;;;;;;;;;;;;;-70
2023/07/01 00:37:44;;;;;;;;;;;;;;;17.37;72.15332;100641.1;;;;-70
2023/07/01 00:42:44;;;;;;;;;;;;;;;17.35;72.84863;100637.2;;;;-70
2023/07/01 00:47:46;;;;;;;;;;;;;;;17.32;73.30469;100632.2;;;;-70
2023/07/01 00:52:48;;;;;;;;;;;;;;;17.34;73.83789;100617.4;;;;-70
2023/07/01 00:57:44;;;;;;;;;;;;;;;17.38;72.96582;100612;;;;-69
2023/07/01 01:02:53;;;;;;;;;;;;;;;17.32;74.48633;100600.5;;;;-69
2023/07/01 01:04:39;;;;;;;0.2;0.1;;;;;;;;;;;;;-70
2023/07/01 01:07:50;;;;;;;;;;;;;;;17.32;73.63086;100597.2;;;;-70
2023/07/01 01:12:48;;;;;;;;;;;;;;;17.25;76.17676;100588.9;;;;-71
2023/07/01 01:17:45;;;;;;;;;;;;;;;17.32;75.04883;100579.7;;;;-69
2023/07/01 01:22:46;;;;;;;;;;;;;;;17.3;74.99121;100577.3;;;;-69
2023/07/01 01:27:45;;;;;;;;;;;;;;;17.25;75.78125;100568;;;;-68
2023/07/01 01:32:44;;;;;;;;;;;;;;;17.23;75.96875;100558.8;;;;-68
2023/07/01 01:34:37;;;;;;;0.2;0.1;;;;;;;;;;;;;-70
2023/07/01 01:37:47;;;;;;;;;;;;;;;17.21;76.80859;100552.1;;;;-67
2023/07/01 01:42:47;;;;;;;;;;;;;;;17.17;77.51074;100545.2;;;;-68
2023/07/01 01:47:44;;;;;;;;;;;;;;;17.12;77.64844;100541.6;;;;-69
2023/07/01 01:52:45;;;;;;;;;;;;;;;17.19;77.17578;100533.9;;;;-68
2023/07/01 01:57:44;;;;;;;;;;;;;;;17.16;76.78906;100525.4;;;;-69
2023/07/01 02:02:44;;;;;;;;;;;;;;;17.18;77.59082;100524.6;;;;-68
2023/07/01 02:04:39;;;;;;;0.2;0;;;;;;;;;;;;;-70
2023/07/01 02:07:44;;;;;;;;;;;;;;;17.12;78.21094;100515.1;;;;-70
2023/07/01 02:12:44;;;;;;;;;;;;;;;17.15;77.65332;100511.4;;;;-70
2023/07/01 02:17:44;;;;;;;;;;;;;;;17.15;78.39551;100511.2;;;;-68
2023/07/01 02:22:56;;;;;;;;;;;;;;;17.11;77.79297;100503.5;;;;-69
2023/07/01 02:27:44;;;;;;;;;;;;;;;17.09;78.94531;100489.2;;;;-70
2023/07/01 02:32:45;;;;;;;;;;;;;;;17.11;79.15137;100489.7;;;;-69
2023/07/01 02:34:43;;;;;;;0.6;0.3;;;;;;;;;;;;;-68
2023/07/01 02:37:44;;;;;;;;;;;;;;;17.06;80.81641;100483.9;;;;-69
2023/07/01 02:42:44;;;;;;;;;;;;;;;17.04;80.63379;100484.5;;;;-68
2023/07/01 02:47:44;;;;;;;;;;;;;;;17.06;81.42285;100474.9;;;;-69
2023/07/01 02:52:54;;;;;;;;;;;;;;;;;;;;;
2023/07/01 02:57:50;;;;;;;;;;;;;;;17.11;79.64746;100465.4;;;;-69
2023/07/01 03:02:48;;;;;;;;;;;;;;;17.08;80.38379;100457.3;;;;-71
2023/07/01 03:04:44;;;;;;;0.2;0.1;;;;;;;;;;;;;-69
2023/07/01 03:07:51;;;;;;;;;;;;;;;17.09;79.85547;100452.5;;;;-69
2023/07/01 03:12:44;;;;;;;;;;;;;;;17.1;80.39648;100452.8;;;;-74
2023/07/01 03:17:44;;;;;;;;;;;;;;;17.09;80.33887;100444.3;;;;-71
2023/07/01 03:22:44;;;;;;;;;;;;;;;17.07;80.71777;100438.8;;;;-70
2023/07/01 03:27:49;;;;;;;;;;;;;;;17.09;81.91113;100435.1;;;;-69
2023/07/01 03:32:50;;;;;;;;;;;;;;;17.11;81.12793;100425.4;;;;-69
2023/07/01 03:34:47;;;;;;;0.2;0;;;;;;;;;;;;;-70
2023/07/01 03:37:45;;;;;;;;;;;;;;;17.08;81.5625;100423.1;;;;-69
2023/07/01 03:47:45;;;;;;;;;;;;;;;17.08;82.78613;100409.8;;;;-70
2023/07/01 03:52:44;;;;;;;;;;;;;;;17.05;83.8916;100405;;;;-71
2023/07/01 03:57:44;;;;;;;;;;;;;;;17.1;84.55176;100398;;;;-70
2023/07/01 04:02:44;;;;;;;;;;;;;;;17.06;84.63184;100398.2;;;;-68
2023/07/01 04:04:52;;;;;;;0.2;0.1;;;;;;;;;;;;;-70
2023/07/01 04:07:47;;;;;;;;;;;;;;;17.06;85.47363;100390.7;;;;-70
2023/07/01 04:12:45;;;;;;;;;;;;;;;17.11;85.44824;100388.4;;;;-71
2023/07/01 04:17:48;;;;;;;;;;;;;;;17.13;85.2627;100384.5;;;;-71
2023/07/01 04:22:47;;;;;;;;;;;;;;;17.14;84.84766;100381.7;;;;-69
2023/07/01 04:27:45;;;;;;;;;;;;;;;17.16;85.29102;100381.8;;;;-68
2023/07/01 04:32:47;;;;;;;;;;;;;;;17.2;84.09766;100380.6;;;;-69
2023/07/01 04:34:55;;;;;;;0.2;0.1;;;;;;;;;;;;;-70
2023/07/01 04:37:47;;;;;;;;;;;;;;;17.15;85.63672;100380.3;;;;-69
2023/07/01 04:42:49;;;;;;;;;;;;;;;17.18;85.7207;100382;;;;-69
2023/07/01 04:47:44;;;;;;;;;;;;;;;17.19;85.93555;100379.3;;;;-69
2023/07/01 04:52:45;;;;;;;;;;;;;;;17.22;86.81543;100372.9;;;;-69
2023/07/01 04:57:48;;;;;;;;;;;;;;;17.24;85.05957;100371;;;;-69
2023/07/01 05:02:44;;;;;;;;;;;;;;;17.23;86.72754;100373.8;;;;-71
2023/07/01 05:04:54;;;;;;;0.2;0.1;;;;;;;;;;;;;-71
2023/07/01 05:07:44;;;;;;;;;;;;;;;17.26;85.37695;100367.1;;;;-69
2023/07/01 05:12:47;;;;;;;;;;;;;;;17.3;85.5752;100365.2;;;;-69
2023/07/01 05:17:49;;;;;;;;;;;;;;;17.31;86.20703;100361.6;;;;-70
2023/07/01 05:22:47;;;;;;;;;;;;;;;17.31;86.11523;100362.9;;;;-69
2023/07/01 05:27:44;;;;;;;;;;;;;;;17.33;85.94141;100362.8;;;;-69
2023/07/01 05:32:44;;;;;;;;;;;;;;;17.35;86.03418;100354.3;;;;-69
2023/07/01 05:34:58;;;;;;;0.2;0.1;;;;;;;;;;;;;-70
2023/07/01 05:37:46;;;;;;;;;;;;;;;17.39;85.53613;100357;;;;-69
2023/07/01 05:42:47;;;;;;;;;;;;;;;17.4;84.65332;100347.8;;;;-69
2023/07/01 05:47:47;;;;;;;;;;;;;;;17.44;85.49023;100346.5;;;;-69
2023/07/01 05:52:44;;;;;;;;;;;;;;;17.44;86.5791;100350.2;;;;-70
2023/07/01 05:57:44;;;;;;;;;;;;;;;17.44;87.66602;100345.2;;;;-70
2023/07/01 06:02:49;;;;;;;;;;;;;;;17.49;86.41992;100344.9;;;;-69
2023/07/01 06:05:01;;;;;;;0.2;0.1;;;;;;;;;;;;;-71
2023/07/01 06:07:44;;;;;;;;;;;;;;;17.52;86.50391;100337.7;;;;-70
2023/07/01 06:12:46;;;;;;;;;;;;;;;17.54;85.8584;100340.2;;;;-70
2023/07/01 06:17:44;;;;;;;;;;;;;;;17.59;85.69629;100341;;;;-69
2023/07/01 06:22:44;;;;;;;;;;;;;;;17.61;85.47754;100343.2;;;;-70
2023/07/01 06:27:44;;;;;;;;;;;;;;;17.64;84.77734;100343.4;;;;-69
2023/07/01 06:32:44;;;;;;;;;;;;;;;17.66;87.01465;100341;;;;-69
2023/07/01 06:35:02;;;;;;;0.2;0.1;;;;;;;;;;;;;-69
2023/07/01 06:37:44;;;;;;;;;;;;;;;17.71;85.7998;100342.5;;;;-68
2023/07/01 06:42:44;;;;;;;;;;;;;;;17.73;85.96191;100340.7;;;;-69
2023/07/01 06:47:47;;;;;;;;;;;;;;;17.75;87.30176;100335.8;;;;-71
2023/07/01 06:52:44;;;;;;;;;;;;;;;17.79;86.41211;100335.4;;;;-69
2023/07/01 06:57:44;;;;;;;;;;;;;;;17.86;88.1748;100334;;;;-69
2023/07/01 07:02:44;;;;;;;;;;;;;;;17.9;88.26367;100334.7;;;;-70
2023/07/01 07:05:09;;;;;;;0.2;0.1;;;;;;;;;;;;;-69
2023/07/01 07:07:44;;;;;;;;;;;;;;;17.95;86.91406;100335;;;;-69
2023/07/01 07:12:44;;;;;;;;;;;;;;;18.01;87.58789;100337.4;;;;-69
2023/07/01 07:17:44;;;;;;;;;;;;;;;18.06;87.62988;100331.5;;;;-69
2023/07/01 07:22:44;;;;;;;;;;;;;;;18.11;88.10352;100330;;;;-69
2023/07/01 07:27:45;;;;;;;;;;;;;;;18.15;87.71777;100332.6;;;;-69
2023/07/01 07:32:44;;;;;;;;;;;;;;;18.18;87.74512;100334;;;;-69
2023/07/01 07:35:07;;;;;;;0.2;0.1;;;;;;;;;;;;;-69
2023/07/01 07:37:44;;;;;;;;;;;;;;;18.22;87.69824;100337.8;;;;-69
2023/07/01 07:42:44;;;;;;;;;;;;;;;18.24;87.54395;100332.8;;;;-70
2023/07/01 07:47:48;;;;;;;;;;;;;;;18.3;87.5459;100339.5;;;;-69
2023/07/01 07:52:44;;;;;;;;;;;;;;;18.34;88.56445;100339.7;;;;-69
2023/07/01 07:57:44;;;;;;;;;;;;;;;18.38;88.63867;100341.1;;;;-70
2023/07/01 08:02:45;;;;;;;;;;;;;;;18.45;87.92285;100333;;;;-69
2023/07/01 08:05:10;;;;;;;0.2;0.1;;;;;;;;;;;;;-69
2023/07/01 08:07:44;;;;;;;;;;;;;;;18.48;87.98438;100331.8;;;;-68
2023/07/01 08:12:44;;;;;;;;;;;;;;;18.52;88.25195;100329;;;;-72
2023/07/01 08:17:47;;;;;;;;;;;;;;;18.55;88.94238;100332.4;;;;-72
2023/07/01 08:22:45;;;;;;;;;;;;;;;18.57;88.98926;100332.7;;;;-72
2023/07/01 08:27:44;;;;;;;;;;;;;;;18.54;89.99512;100332.4;;;;-72
2023/07/01 08:32:47;;;;;;;;;;;;;;;18.52;89.64551;100332.2;;;;-69
2023/07/01 08:35:13;;;;;;;0.2;0.1;;;;;;;;;;;;;-68
2023/07/01 08:37:44;;;;;;;;;;;;;;;18.52;89.01563;100331.4;;;;-69
2023/07/01 08:42:48;;;;;;;;;;;;;;;18.5;88.51563;100326.9;;;;-68
2023/07/01 08:47:44;;;;;;;;;;;;;;;18.51;88.92285;100332.3;;;;-70
2023/07/01 08:52:45;;;;;;;;;;;;;;;18.56;88.30371;100325.6;;;;-69
2023/07/01 08:57:44;;;;;;;;;;;;;;;18.69;88.8916;100323.7;;;;-68
2023/07/01 09:02:44;;;;;;;;;;;;;;;18.77;88.48047;100328.3;;;;-69
2023/07/01 09:05:18;;;;;;;0.2;0.1;;;;;;;;;;;;;-68
2023/07/01 09:07:44;;;;;;;;;;;;;;;18.78;87.72852;100333.9;;;;-69
2023/07/01 09:12:44;;;;;;;;;;;;;;;18.73;88.77441;100332.1;;;;-68
2023/07/01 09:17:44;;;;;;;;;;;;;;;18.76;87.06055;100333.7;;;;-67
2023/07/01 09:22:47;;;;;;;;;;;;;;;18.76;87.79199;100335.6;;;;-69
2023/07/01 09:27:49;;;;;;;;;;;;;;;18.78;86.80566;100339;;;;-69
2023/07/01 09:32:47;;;;;;;;;;;;;;;18.82;87.37695;100336.7;;;;-70
2023/07/01 09:35:22;;;;;;;0.3;0.1;;;;;;;;;;;;;-67
2023/07/01 09:37:44;;;;;;;;;;;;;;;18.91;87.125;100336.9;;;;-70
2023/07/01 09:42:52;;;;;;;;;;;;;;;18.99;87.01367;100332.4;;;;-68
2023/07/01 09:47:44;;;;;;;;;;;;;;;19.09;87.96973;100336.9;;;;-69
2023/07/01 09:52:45;;;;;;;;;;;;;;;19.13;87.69727;100330.7;;;;-69
2023/07/01 09:57:45;;;;;;;;;;;;;;;19.17;88.43555;100329.5;;;;-68
2023/07/01 10:02:44;;;;;;;;;;;;;;;19.17;88.09766;100328.5;;;;-68
2023/07/01 10:05:20;;;;;;;0.2;0.1;;;;;;;;;;;;;-69
2023/07/01 10:07:44;;;;;;;;;;;;;;;19.13;88.12305;100326.3;;;;-70
2023/07/01 10:12:48;;;;;;;;;;;;;;;19.06;87.20996;100332.3;;;;-68
2023/07/01 10:17:54;;;;;;;;;;;;;;;19.02;87.84375;100332.7;;;;-69
2023/07/01 10:22:54;;;;;;;;;;;;;;;19;86.31934;100329.4;;;;-68
2023/07/01 10:27:58;;;;;;;;;;;;;;;19;87.01758;100334.8;;;;-68
2023/07/01 10:32:44;;;;;;;;;;;;;;;18.96;85.25391;100336.3;;;;-69
2023/07/01 10:35:23;;;;;;;0.3;0.2;;;;;;;;;;;;;-69
2023/07/01 10:37:44;;;;;;;;;;;;;;;18.93;85.88867;100343.4;;;;-67
2023/07/01 10:42:47;;;;;;;;;;;;;;;18.91;85.85254;100348.5;;;;-70
2023/07/01 10:47:45;;;;;;;;;;;;;;;18.86;85.39063;100346.4;;;;-68
2023/07/01 10:52:55;;;;;;;;;;;;;;;18.83;85.23926;100346.1;;;;-69
2023/07/01 10:57:44;;;;;;;;;;;;;;;18.86;84.88379;100348.4;;;;-69
2023/07/01 11:02:44;;;;;;;;;;;;;;;18.94;83.53613;100345.9;;;;-69
2023/07/01 11:05:29;;;;;;;0.2;0;;;;;;;;;;;;;-69
2023/07/01 11:07:47;;;;;;;;;;;;;;;19.05;85.0459;100342;;;;-70
2023/07/01 11:12:44;;;;;;;;;;;;;;;19.16;85.37109;100346.3;;;;-68
2023/07/01 11:17:54;;;;;;;;;;;;;;;19.22;85.27051;100351.9;;;;-71
2023/07/01 11:22:46;;;;;;;;;;;;;;;19.31;87.38184;100339.7;;;;-69
2023/07/01 11:27:47;;;;;;;;;;;;;;;19.43;86.45801;100341.9;;;;-69
2023/07/01 11:32:44;;;;;;;;;;;;;;;19.46;87.18457;100351.6;;;;-69
2023/07/01 11:35:29;;;;;;;0.4;0.2;;;;;;;;;;;;;-68
2023/07/01 11:37:44;;;;;;;;;;;;;;;19.49;86.07715;100352.7;;;;-69
2023/07/01 11:42:44;;;;;;;;;;;;;;;19.42;85.9834;100358.8;;;;-69
2023/07/01 11:47:50;;;;;;;;;;;;;;;19.4;85.25781;100365;;;;-69
2023/07/01 11:52:44;;;;;;;;;;;;;;;19.38;86.00781;100375.1;;;;-68
2023/07/01 11:57:44;;;;;;;;;;;;;;;19.5;86.10059;100376.4;;;;-68
2023/07/01 12:02:46;;;;;;;;;;;;;;;19.68;86.42871;100377.6;;;;-69
2023/07/01 12:05:34;;;;;;;0.2;0.1;;;;;;;;;;;;;-68
2023/07/01 12:07:57;;;;;;;;;;;;;;;19.8;84.24023;100389.5;;;;-69
2023/07/01 12:12:44;;;;;;;;;;;;;;;19.7;83.62305;100403.1;;;;-69
2023/07/01 12:17:44;;;;;;;;;;;;;;;19.61;83.4248;100400.9;;;;-69
2023/07/01 12:22:44;;;;;;;;;;;;;;;19.64;83.82715;100404.4;;;;-68
2023/07/01 12:27:46;;;;;;;;;;;;;;;19.73;83.8877;100405.6;;;;-69
2023/07/01 12:32:48;;;;;;;;;;;;;;;19.8;83.85645;100413.8;;;;-68
2023/07/01 12:35:35;;;;;;;0.2;0;;;;;;;;;;;;;-69
2023/07/01 12:37:47;;;;;;;;;;;;;;;19.74;82.6582;100419.5;;;;-69
2023/07/01 12:42:45;;;;;;;;;;;;;;;19.7;83.69043;100423.2;;;;-69
2023/07/01 12:47:49;;;;;;;;;;;;;;;19.63;83.55469;100422.1;;;;-68
2023/07/01 12:52:44;;;;;;;;;;;;;;;19.7;83.4082;100427.4;;;;-68
2023/07/01 12:57:44;;;;;;;;;;;;;;;19.66;82.75781;100437.8;;;;-68
2023/07/01 13:02:47;;;;;;;;;;;;;;;19.64;82.14551;100449.8;;;;-69
2023/07/01 13:05:38;;;;;;;0.3;0.1;;;;;;;;;;;;;-68
2023/07/01 13:07:44;;;;;;;;;;;;;;;19.66;82.16895;100451.3;;;;-68
2023/07/01 13:12:45;;;;;;;;;;;;;;;19.81;81.51953;100456.4;;;;-69
2023/07/01 13:17:44;;;;;;;;;;;;;;;19.86;82.06055;100463.3;;;;-68
2023/07/01 13:22:44;;;;;;;;;;;;;;;19.85;81.55078;100474.4;;;;-68
2023/07/01 13:27:46;;;;;;;;;;;;;;;19.85;81.04297;100477.4;;;;-67
2023/07/01 13:32:44;;;;;;;;;;;;;;;19.86;81.00879;100476.5;;;;-68
2023/07/01 13:35:42;;;;;;;0.2;0;;;;;;;;;;;;;-68
2023/07/01 13:37:44;;;;;;;;;;;;;;;19.88;80.52637;100484.9;;;;-68
2023/07/01 13:42:46;;;;;;;;;;;;;;;19.94;80.01953;100490.7;;;;-68
2023/07/01 13:47:50;;;;;;;;;;;;;;;20.04;79.70898;100497.8;;;;-68
2023/07/01 13:52:48;;;;;;;;;;;;;;;20.11;79.55078;100496.1;;;;-69
2023/07/01 13:57:44;;;;;;;;;;;;;;;20.19;78.85254;100495.7;;;;-69
2023/07/01 14:02:44;;;;;;;;;;;;;;;20.33;79.0791;100487.1;;;;-68
2023/07/01 14:05:45;;;;;;;0.2;0.1;;;;;;;;;;;;;-69
2023/07/01 14:07:44;;;;;;;;;;;;;;;20.43;77.76172;100494.6;;;;-70
2023/07/01 14:12:46;;;;;;;;;;;;;;;20.57;77.40234;100490.7;;;;-69
2023/07/01 14:17:50;;;;;;;;;;;;;;;20.79;76.72559;100484.8;;;;-68
2023/07/01 14:22:46;;;;;;;;;;;;;;;20.96;76.16406;100487.8;;;;-69
2023/07/01 14:27:46;;;;;;;;;;;;;;;21.07;75.00391;100493.4;;;;-69
2023/07/01 14:32:44;;;;;;;;;;;;;;;21.12;74.05762;100494.3;;;;-67
2023/07/01 14:35:50;;;;;;;0.4;0.1;;;;;;;;;;;;;-68
2023/07/01 14:37:49;;;;;;;;;;;;;;;21.21;73.68652;100504.8;;;;-69
2023/07/01 14:42:47;;;;;;;;;;;;;;;21.28;73.12891;100509;;;;-68
2023/07/01 14:47:44;;;;;;;;;;;;;;;21.29;72.43848;100508;;;;-67
2023/07/01 14:52:44;;;;;;;;;;;;;;;21.35;72.10645;100508.7;;;;-69
2023/07/01 14:57:54;;;;;;;;;;;;;;;21.35;71.81152;100508.5;;;;-68
2023/07/01 15:02:44;;;;;;;;;;;;;;;21.39;71.51074;100507.5;;;;-70
2023/07/01 15:05:50;;;;;;;0.2;0.1;;;;;;;;;;;;;-69
2023/07/01 15:07:44;;;;;;;;;;;;;;;21.34;71.57031;100505.5;;;;-69
2023/07/01 15:12:46;;;;;;;;;;;;;;;21.35;71.48047;100511.1;;;;-70
2023/07/01 15:17:47;;;;;;;;;;;;;;;21.36;70.90332;100516;;;;-69
2023/07/01 15:22:44;;;;;;;;;;;;;;;21.35;70.91211;100524.3;;;;-70
2023/07/01 15:27:53;;;;;;;;;;;;;;;21.36;70.70898;100523.3;;;;-68
2023/07/01 15:32:44;;;;;;;;;;;;;;;21.34;70.76465;100528;;;;-68
2023/07/01 15:35:53;;;;;;;0.2;0;;;;;;;;;;;;;-68
2023/07/01 15:37:44;;;;;;;;;;;;;;;21.35;71.17383;100530.2;;;;-68
2023/07/01 15:42:44;;;;;;;;;;;;;;;21.41;70.60352;100534.1;;;;-70
2023/07/01 15:47:45;;;;;;;;;;;;;;;21.5;70.29785;100534.4;;;;-69
2023/07/01 15:52:44;;;;;;;;;;;;;;;21.58;69.82129;100538;;;;-69
2023/07/01 15:57:44;;;;;;;;;;;;;;;21.6;69.12988;100539.9;;;;-68
2023/07/01 16:02:47;;;;;;;;;;;;;;;21.53;69.28125;100535.8;;;;-69
2023/07/01 16:05:56;;;;;;;0.2;0;;;;;;;;;;;;;-70
2023/07/01 16:07:51;;;;;;;;;;;;;;;21.51;69.18555;100534.8;;;;-69
2023/07/01 16:12:46;;;;;;;;;;;;;;;21.42;70.45703;100540.9;;;;-68
2023/07/01 16:17:52;;;;;;;;;;;;;;;21.25;69.86328;100542.8;;;;-69
2023/07/01 16:22:44;;;;;;;;;;;;;;;21.1;70.07813;100545.5;;;;-69
2023/07/01 16:27:46;;;;;;;;;;;;;;;20.94;70.00684;100553;;;;-70
2023/07/01 16:32:44;;;;;;;;;;;;;;;20.78;70.61719;100555.9;;;;-68
2023/07/01 16:36:19;;;;;;;0.3;0.1;;;;;;;;;;;;;-67
2023/07/01 16:37:44;;;;;;;;;;;;;;;20.63;71.02734;100556.1;;;;-69
2023/07/01 16:42:44;;;;;;;;;;;;;;;20.53;71.34961;100563.4;;;;-69
2023/07/01 16:47:44;;;;;;;;;;;;;;;20.39;70.94434;100562.5;;;;-70
2023/07/01 16:52:46;;;;;;;;;;;;;;;20.27;71.08105;100557.6;;;;-68
2023/07/01 16:57:45;;;;;;;;;;;;;;;20.13;71.43359;100563.7;;;;-68
2023/07/01 17:03:05;;;;;;;;;;;;;;;20.02;71.3252;100557.9;;;;-68
2023/07/01 17:06:03;;;;;;;0.2;0;;;;;;;;;;;;;-70
2023/07/01 17:07:46;;;;;;;;;;;;;;;19.9;71.57813;100568.3;;;;-67
2023/07/01 17:12:50;;;;;;;;;;;;;;;19.81;70.70117;100571.1;;;;-68
2023/07/01 17:17:47;;;;;;;;;;;;;;;19.68;70.33105;100575;;;;-69
2023/07/01 17:22:45;;;;;;;;;;;;;;;19.62;69.75488;100580.5;;;;-68
2023/07/01 17:27:44;;;;;;;;;;;;;;;19.55;70.32227;100583;;;;-69
2023/07/01 17:32:44;;;;;;;;;;;;;;;19.51;70.24707;100591.1;;;;-70
2023/07/01 17:36:07;;;;;;;0.2;0.1;;;;;;;;;;;;;-69
2023/07/01 17:37:44;;;;;;;;;;;;;;;19.46;70.84082;100590;;;;-67
2023/07/01 17:42:44;;;;;;;;;;;;;;;19.44;70.75684;100589.1;;;;-69
2023/07/01 17:47:47;;;;;;;;;;;;;;;19.38;70.37402;100589.7;;;;-69
2023/07/01 17:52:44;;;;;;;;;;;;;;;19.33;69.92383;100596.9;;;;-69
2023/07/01 17:57:46;;;;;;;;;;;;;;;19.3;70.53125;100599.2;;;;-68
2023/07/01 18:02:46;;;;;;;;;;;;;;;19.24;70.02344;100595.6;;;;-68
2023/07/01 18:06:12;;;;;;;0.2;0;;;;;;;;;;;;;-70
2023/07/01 18:07:44;;;;;;;;;;;;;;;19.2;70.41406;100595.8;;;;-68
2023/07/01 18:12:44;;;;;;;;;;;;;;;19.16;70.87012;100593.3;;;;-68
2023/07/01 18:17:44;;;;;;;;;;;;;;;19.11;70.79492;100594.8;;;;-68
2023/07/01 18:22:44;;;;;;;;;;;;;;;19.08;70.73438;100600.7;;;;-71
2023/07/01 18:27:44;;;;;;;;;;;;;;;19.04;71.04395;100605.1;;;;-69
2023/07/01 18:32:44;;;;;;;;;;;;;;;18.99;71.3418;100602.4;;;;-69
2023/07/01 18:36:13;;;;;;;0.4;0.2;;;;;;;;;;;;;-69
2023/07/01 18:37:46;;;;;;;;;;;;;;;18.96;71.29102;100606.1;;;;-69
2023/07/01 18:42:45;;;;;;;;;;;;;;;18.91;71.12402;100607.4;;;;-69
2023/07/01 18:47:44;;;;;;;;;;;;;;;18.84;71.3418;100606.2;;;;-69
2023/07/01 18:52:46;;;;;;;;;;;;;;;18.81;71.07422;100608.3;;;;-69
2023/07/01 18:57:47;;;;;;;;;;;;;;;18.73;71.40137;100612.1;;;;-68
2023/07/01 19:02:44;;;;;;;;;;;;;;;18.68;72.00488;100619.2;;;;-68
2023/07/01 19:06:15;;;;;;;0.2;0;;;;;;;;;;;;;-69
2023/07/01 19:07:44;;;;;;;;;;;;;;;18.62;71.83594;100615.7;;;;-69
2023/07/01 19:12:46;;;;;;;;;;;;;;;18.56;71.82617;100619.4;;;;-69
2023/07/01 19:17:44;;;;;;;;;;;;;;;18.52;71.87598;100618.9;;;;-68
2023/07/01 19:22:44;;;;;;;;;;;;;;;18.43;71.61328;100620.9;;;;-69
2023/07/01 19:27:44;;;;;;;;;;;;;;;18.36;72.05371;100617.4;;;;-68
2023/07/01 19:32:46;;;;;;;;;;;;;;;18.31;71.56055;100623.5;;;;-68
2023/07/01 19:36:18;;;;;;;0.2;0.1;;;;;;;;;;;;;-70
2023/07/01 19:37:46;;;;;;;;;;;;;;;18.31;71.83105;100629.8;;;;-69
2023/07/01 19:42:44;;;;;;;;;;;;;;;18.26;72.13965;100632.5;;;;-69
2023/07/01 19:47:45;;;;;;;;;;;;;;;18.19;72.00586;100649.2;;;;-68
2023/07/01 19:52:44;;;;;;;;;;;;;;;18.14;72.12109;100646.5;;;;-69
2023/07/01 19:57:44;;;;;;;;;;;;;;;18.1;72.10254;100652.2;;;;-69
2023/07/01 20:02:47;;;;;;;;;;;;;;;18.04;72.09375;100645.3;;;;-69
2023/07/01 20:06:21;;;;;;;0.3;0.1;;;;;;;;;;;;;-68
2023/07/01 20:07:44;;;;;;;;;;;;;;;18.01;72.2002;100653.2;;;;-67
2023/07/01 20:12:45;;;;;;;;;;;;;;;17.96;72.45117;100664.6;;;;-70
2023/07/01 20:17:44;;;;;;;;;;;;;;;17.88;72.49512;100669.5;;;;-68
2023/07/01 20:22:44;;;;;;;;;;;;;;;17.87;72.67578;100668.2;;;;-68
2023/07/01 20:27:46;;;;;;;;;;;;;;;17.81;72.4043;100662.9;;;;-68
2023/07/01 20:32:44;;;;;;;;;;;;;;;17.77;72.77051;100662.8;;;;-68
2023/07/01 20:36:23;;;;;;;0.2;0.1;;;;;;;;;;;;;-67
2023/07/01 20:37:44;;;;;;;;;;;;;;;17.71;72.18555;100677.3;;;;-67
2023/07/01 20:42:46;;;;;;;;;;;;;;;17.65;72.40234;100683.1;;;;-69
2023/07/01 20:47:45;;;;;;;;;;;;;;;17.6;72.58594;100689.3;;;;-68
2023/07/01 20:52:46;;;;;;;;;;;;;;;17.59;72.36914;100686;;;;-68
2023/07/01 20:57:46;;;;;;;;;;;;;;;17.54;72.58496;100684.8;;;;-68
2023/07/01 21:02:44;;;;;;;;;;;;;;;17.5;72.6709;100691.4;;;;-66
2023/07/01 21:06:27;;;;;;;0.2;0.1;;;;;;;;;;;;;-69
2023/07/01 21:07:44;;;;;;;;;;;;;;;17.48;72.46387;100690.4;;;;-67
2023/07/01 21:12:44;;;;;;;;;;;;;;;17.46;72.68652;100691;;;;-69
2023/07/01 21:17:47;;;;;;;;;;;;;;;17.41;73.0957;100693.7;;;;-69
2023/07/01 21:22:44;;;;;;;;;;;;;;;17.4;73.29492;100702.4;;;;-68
2023/07/01 21:27:52;;;;;;;;;;;;;;;17.39;72.99121;100705.5;;;;-71
2023/07/01 21:32:46;;;;;;;;;;;;;;;17.37;73.31348;100717;;;;-68
2023/07/01 21:36:28;;;;;;;0.2;0.1;;;;;;;;;;;;;-70
2023/07/01 21:37:45;;;;;;;;;;;;;;;17.36;73.73926;100719;;;;-70
2023/07/01 21:42:44;;;;;;;;;;;;;;;17.37;73.17773;100726.2;;;;-69
2023/07/01 21:47:45;;;;;;;;;;;;;;;17.36;73.13184;100724.8;;;;-70
2023/07/01 21:52:44;;;;;;;;;;;;;;;17.35;72.9502;100726.2;;;;-70
2023/07/01 21:57:46;;;;;;;;;;;;;;;17.35;72.85938;100733.9;;;;-68
2023/07/01 22:02:44;;;;;;;;;;;;;;;17.33;73.2959;100736.2;;;;-70
2023/07/01 22:06:32;;;;;;;0.2;0;;;;;;;;;;;;;-69
2023/07/01 22:07:48;;;;;;;;;;;;;;;17.31;72.96484;100737.1;;;;-69
2023/07/01 22:12:46;;;;;;;;;;;;;;;17.31;72.7627;100739.1;;;;-69
2023/07/01 22:17:44;;;;;;;;;;;;;;;17.29;72.82715;100730.6;;;;-69
2023/07/01 22:22:44;;;;;;;;;;;;;;;17.23;72.99805;100726.3;;;;-68
2023/07/01 22:27:44;;;;;;;;;;;;;;;17.2;72.60938;100730.8;;;;-68
2023/07/01 22:32:44;;;;;;;;;;;;;;;17.17;72.54883;100733.8;;;;-69
2023/07/01 22:36:36;;;;;;;0.2;0.1;;;;;;;;;;;;;-69
2023/07/01 22:37:44;;;;;;;;;;;;;;;17.14;72.21582;100730.8;;;;-67
2023/07/01 22:42:44;;;;;;;;;;;;;;;17.08;72.26367;100735.2;;;;-68
2023/07/01 22:47:44;;;;;;;;;;;;;;;17.05;72.15723;100732.4;;;;-68
2023/07/01 22:52:45;;;;;;;;;;;;;;;17.03;71.90723;100736.1;;;;-68
2023/07/01 22:57:44;;;;;;;;;;;;;;;17.01;71.67773;100738.4;;;;-69
2023/07/01 23:02:45;;;;;;;;;;;;;;;16.98;71.71777;100740.2;;;;-70
2023/07/01 23:06:36;;;;;;;0.2;0.1;;;;;;;;;;;;;-69
2023/07/01 23:07:44;;;;;;;;;;;;;;;16.94;71.45313;100746;;;;-68
2023/07/01 23:12:47;;;;;;;;;;;;;;;16.89;71.16309;100741.2;;;;-68
2023/07/01 23:17:46;;;;;;;;;;;;;;;16.82;70.9502;100740.6;;;;-69
2023/07/01 23:22:45;;;;;;;;;;;;;;;16.77;70.78418;100739.2;;;;-70
2023/07/01 23:27:48;;;;;;;;;;;;;;;16.74;70.5752;100740.8;;;;-69
2023/07/01 23:32:51;;;;;;;;;;;;;;;16.71;70.45996;100743;;;;-69
2023/07/01 23:36:38;;;;;;;0.2;0.1;;;;;;;;;;;;;-68
2023/07/01 23:37:44;;;;;;;;;;;;;;;16.69;70.36719;100741.6;;;;-68
2023/07/01 23:42:52;;;;;;;;;;;;;;;16.64;70.09766;100741.4;;;;-68
2023/07/01 23:47:44;;;;;;;;;;;;;;;16.6;69.6084;100748.3;;;;-67
2023/07/01 23:52:44;;;;;;;;;;;;;;;16.57;69.54688;100750.8;;;;-69
2023/07/01 23:57:44;;;;;;;;;;;;;;;16.56;69.41113;100751.5;;;;-68
